Time;durP1;ratioP1;P1;durP2;ratioP2;P2;SDS_P1;SDS_P2;PMS_P1;PMS_P2;Temp;Humidity;BMP_temperature;BMP_pressure;BME280_temperature;BME280_humidity;BME280_pressure;Samples;Min_cycle;Max_cycle;Signal;HPM_P1;HPM_P2
2023/09/18 00:02:09;;;;;;;19.65;16.67;;;;;;;;;;5019804;27;100240;-60
2023/09/18 00:04:35;;;;;;;22.17;19.90;;;;;;;;;;5015961;27;100457;-60
2023/09/18 00:07:02;;;;;;;23.50;20.17;;;;;;;;;;5013833;27;99061;-59
2023/09/18 00:09:28;;;;;;;20.15;15.77;;;;;;;;;;5010888;27;99477;-60
2023/09/18 00:11:55;;;;;;;22.05;14.70;;;;;;;;;;5016373;27;98591;-60
2023/09/18 00:14:21;;;;;;;21.77;15.50;;;;;;;;;;5010828;27;100512;-60
2023/09/18 00:16:48;;;;;;;20.95;15.57;;;;;;;;;;5013373;27;98705;-59
2023/09/18 00:19:24;;;;;;;21.92;14.93;;;;;;;;;;5031617;27;99624;-59
2023/09/18 00:21:52;;;;;;;27.70;14.35;;;;;;;;;;5011322;27;99213;-59
2023/09/18 00:24:19;;;;;;;24.60;18.92;;;;;;;;;;5010940;27;101195;-60
2023/09/18 00:26:46;;;;;;;15.70;12.10;;;;;;;;;;5013127;27;98660;-60
2023/09/18 00:29:13;;;;;;;15.45;14.00;;;;;;;;;;5016940;27;99185;-61
2023/09/18 00:31:40;;;;;;;18.80;13.45;;;;;;;;;;5018327;27;98504;-60
2023/09/18 00:34:06;;;;;;;23.02;17.55;;;;;;;;;;5015998;27;99345;-60
2023/09/18 00:36:32;;;;;;;18.00;15.30;;;;;;;;;;5011927;27;99474;-59
2023/09/18 00:38:59;;;;;;;21.90;15.45;;;;;;;;;;5016614;27;99139;-59
2023/09/18 00:41:25;;;;;;;26.75;14.00;;;;;;;;;;5011797;27;99675;-60
2023/09/18 00:43:52;;;;;;;16.13;12.75;;;;;;;;;;5008157;27;99677;-59
2023/09/18 00:46:19;;;;;;;18.35;14.60;;;;;;;;;;5016675;27;98709;-58
2023/09/18 00:48:46;;;;;;;21.02;14.13;;;;;;;;;;5011085;27;99506;-60
2023/09/18 00:51:13;;;;;;;16.45;14.75;;;;;;;;;;5017482;27;100522;-59
2023/09/18 00:53:43;;;;;;;21.23;12.45;;;;;;;;;;5015632;27;101701;-60
2023/09/18 00:56:09;;;;;;;18.77;15.77;;;;;;;;;;5010231;27;100482;-60
2023/09/18 00:58:36;;;;;;;19.33;14.00;;;;;;;;;;5014657;27;98445;-59
2023/09/18 01:01:03;;;;;;;23.02;16.13;;;;;;;;;;5009634;27;99206;-60
2023/09/18 01:03:30;;;;;;;15.82;13.30;;;;;;;;;;5007359;27;100648;-60
2023/09/18 01:05:57;;;;;;;22.20;14.77;;;;;;;;;;5013861;27;97932;-60
2023/09/18 01:08:24;;;;;;;23.50;13.25;;;;;;;;;;5014611;27;99585;-60
2023/09/18 01:10:51;;;;;;;17.75;14.82;;;;;;;;;;5012738;27;100245;-59
2023/09/18 01:13:21;;;;;;;20.17;16.95;;;;;;;;;;5014136;27;99597;-61
2023/09/18 01:15:47;;;;;;;;;;;;;;;;;;5010496;27;99569;-56
2023/09/18 01:18:14;;;;;;;17.90;16.13;;;;;;;;;;5012905;27;119511;-59
2023/09/18 01:20:40;;;;;;;19.10;15.95;;;;;;;;;;5013086;27;99285;-60
2023/09/18 01:23:07;;;;;;;26.02;15.82;;;;;;;;;;5009603;27;99689;-59
2023/09/18 01:25:34;;;;;;;17.67;15.95;;;;;;;;;;5009894;27;98825;-59
2023/09/18 01:28:00;;;;;;;16.92;14.75;;;;;;;;;;5013848;27;100179;-59
2023/09/18 01:30:27;;;;;;;21.15;15.55;;;;;;;;;;5009502;27;99733;-59
2023/09/18 01:32:54;;;;;;;16.70;13.27;;;;;;;;;;5032185;27;98538;-59
2023/09/18 01:35:22;;;;;;;18.30;14.05;;;;;;;;;;5012819;27;99646;-59
2023/09/18 01:37:49;;;;;;;21.15;15.88;;;;;;;;;;5016069;27;100874;-59
2023/09/18 01:40:16;;;;;;;15.02;13.68;;;;;;;;;;5012763;27;101038;-60
2023/09/18 01:42:43;;;;;;;22.40;15.60;;;;;;;;;;5016912;27;100602;-61
2023/09/18 01:45:09;;;;;;;28.85;17.38;;;;;;;;;;5010223;27;98598;-60
2023/09/18 01:47:36;;;;;;;21.67;14.98;;;;;;;;;;5012216;27;99247;-59
2023/09/18 01:50:05;;;;;;;21.25;14.55;;;;;;;;;;5011317;27;99878;-59
2023/09/18 01:52:31;;;;;;;19.65;16.58;;;;;;;;;;5008555;27;98939;-59
2023/09/18 01:54:58;;;;;;;24.85;22.55;;;;;;;;;;5014505;27;100216;-60
2023/09/18 01:57:25;;;;;;;18.60;15.40;;;;;;;;;;5019043;27;98555;-59
2023/09/18 01:59:51;;;;;;;22.92;20.45;;;;;;;;;;5019532;27;99128;-60
2023/09/18 02:02:18;;;;;;;20.30;16.90;;;;;;;;;;5009953;27;100450;-61
2023/09/18 02:05:03;;;;;;;22.50;20.25;;;;;;;;;;5011055;27;99109;-61
2023/09/18 02:07:35;;;;;;;23.75;21.45;;;;;;;;;;5012830;27;99332;-60
2023/09/18 02:10:03;;;;;;;21.63;17.55;;;;;;;;;;5008305;27;99546;-60
2023/09/18 02:12:29;;;;;;;22.75;18.20;;;;;;;;;;5011887;27;99800;-60
2023/09/18 02:14:58;;;;;;;25.65;23.08;;;;;;;;;;5017050;27;100271;-60
2023/09/18 02:17:24;;;;;;;24.73;22.40;;;;;;;;;;5021217;27;100470;-59
2023/09/18 02:19:51;;;;;;;34.70;31.50;;;;;;;;;;5011583;27;99356;-60
2023/09/18 02:22:17;;;;;;;30.02;27.20;;;;;;;;;;5009414;27;101966;-59
2023/09/18 02:24:44;;;;;;;34.55;31.45;;;;;;;;;;5011488;27;98569;-60
2023/09/18 02:27:11;;;;;;;38.60;34.45;;;;;;;;;;5012492;27;100146;-60
2023/09/18 02:29:38;;;;;;;38.97;34.88;;;;;;;;;;5008991;27;99516;-59
2023/09/18 02:32:04;;;;;;;50.55;45.75;;;;;;;;;;5015376;27;98805;-59
2023/09/18 02:34:31;;;;;;;53.60;46.63;;;;;;;;;;5009996;27;99190;-60
2023/09/18 02:36:57;;;;;;;53.83;48.58;;;;;;;;;;5012301;27;99507;-60
2023/09/18 02:39:24;;;;;;;47.60;42.83;;;;;;;;;;5012657;27;98578;-60
2023/09/18 02:41:50;;;;;;;63.75;57.80;;;;;;;;;;5017489;27;99479;-59
2023/09/18 02:44:16;;;;;;;57.25;51.22;;;;;;;;;;5008434;27;97804;-60
2023/09/18 02:46:43;;;;;;;66.45;60.33;;;;;;;;;;5010935;27;99072;-58
2023/09/18 02:49:09;;;;;;;57.55;52.60;;;;;;;;;;5006792;27;98815;-59
2023/09/18 02:51:38;;;;;;;46.22;41.63;;;;;;;;;;5010850;27;99410;-59
2023/09/18 02:54:04;;;;;;;46.78;41.78;;;;;;;;;;5013840;27;99947;-59
2023/09/18 02:56:31;;;;;;;55.03;50.03;;;;;;;;;;5010441;27;99583;-60
2023/09/18 02:58:57;;;;;;;60.00;54.17;;;;;;;;;;5014717;27;98569;-60
2023/09/18 03:01:24;;;;;;;44.30;40.08;;;;;;;;;;5012224;27;100587;-58
2023/09/18 03:03:50;;;;;;;54.95;49.72;;;;;;;;;;5008604;27;98908;-59
2023/09/18 03:06:17;;;;;;;50.65;45.90;;;;;;;;;;5007965;27;99223;-58
2023/09/18 03:08:43;;;;;;;46.40;42.08;;;;;;;;;;5012584;27;99763;-60
2023/09/18 03:11:13;;;;;;;51.00;46.10;;;;;;;;;;5008278;27;99059;-60
2023/09/18 03:13:46;;;;;;;50.95;46.10;;;;;;;;;;5013952;27;99175;-60
2023/09/18 03:16:13;;;;;;;52.90;46.30;;;;;;;;;;5009116;27;100269;-62
2023/09/18 03:18:39;;;;;;;41.47;36.92;;;;;;;;;;5011228;27;98660;-60
2023/09/18 03:21:06;;;;;;;40.70;36.58;;;;;;;;;;5013593;27;99262;-60
2023/09/18 03:23:32;;;;;;;33.38;30.40;;;;;;;;;;5012986;27;98590;-60
2023/09/18 03:25:59;;;;;;;31.20;25.45;;;;;;;;;;5011967;27;99279;-60
2023/09/18 03:28:26;;;;;;;31.02;27.52;;;;;;;;;;5010532;27;99650;-60
2023/09/18 03:30:52;;;;;;;32.28;28.98;;;;;;;;;;5008445;27;98798;-60
2023/09/18 03:33:19;;;;;;;31.80;28.52;;;;;;;;;;5016129;27;100351;-61
2023/09/18 03:35:47;;;;;;;30.83;27.88;;;;;;;;;;5007954;27;99478;-61
2023/09/18 03:38:14;;;;;;;29.98;26.88;;;;;;;;;;5010090;28;98603;-61
2023/09/18 03:40:41;;;;;;;26.77;24.17;;;;;;;;;;5009273;27;99431;-60
2023/09/18 03:43:09;;;;;;;31.75;28.55;;;;;;;;;;5012458;27;100059;-60
2023/09/18 03:45:36;;;;;;;27.42;24.42;;;;;;;;;;5010082;27;99525;-60
2023/09/18 03:48:02;;;;;;;31.02;27.75;;;;;;;;;;5009685;27;99612;-60
2023/09/18 03:50:29;;;;;;;33.25;30.23;;;;;;;;;;5007706;27;98633;-60
2023/09/18 03:52:55;;;;;;;39.58;35.60;;;;;;;;;;5015240;27;100778;-61
2023/09/18 03:55:22;;;;;;;39.65;35.70;;;;;;;;;;5007824;27;100364;-60
2023/09/18 03:57:48;;;;;;;45.28;40.63;;;;;;;;;;5014233;27;98070;-60
2023/09/18 04:00:16;;;;;;;45.65;41.00;;;;;;;;;;5016256;27;101283;-60
2023/09/18 04:02:42;;;;;;;54.08;47.92;;;;;;;;;;5010126;27;100596;-60
2023/09/18 04:05:09;;;;;;;67.22;61.25;;;;;;;;;;5009804;27;99451;-61
2023/09/18 04:07:36;;;;;;;50.75;45.80;;;;;;;;;;5008098;27;100484;-60
2023/09/18 04:10:03;;;;;;;50.47;45.47;;;;;;;;;;5008520;27;98916;-60
2023/09/18 04:12:30;;;;;;;50.70;45.83;;;;;;;;;;5011919;27;99261;-60
2023/09/18 04:14:56;;;;;;;49.35;44.38;;;;;;;;;;5014447;27;99524;-61
2023/09/18 04:17:22;;;;;;;49.40;43.00;;;;;;;;;;5012391;27;98566;-61
2023/09/18 04:19:49;;;;;;;24.13;15.18;;;;;;;;;;5010927;27;100571;-60
2023/09/18 04:22:15;;;;;;;23.00;14.80;;;;;;;;;;5014669;27;98795;-61
2023/09/18 04:24:42;;;;;;;24.15;15.32;;;;;;;;;;5014903;27;98780;-60
2023/09/18 04:27:08;;;;;;;25.70;14.95;;;;;;;;;;5014117;27;99998;-61
2023/09/18 04:29:35;;;;;;;24.63;14.45;;;;;;;;;;5010935;27;99555;-60
2023/09/18 04:32:04;;;;;;;25.58;14.63;;;;;;;;;;5014017;27;99678;-61
2023/09/18 04:34:30;;;;;;;24.83;14.27;;;;;;;;;;5016696;27;99520;-60
2023/09/18 04:36:57;;;;;;;25.88;14.45;;;;;;;;;;5010704;27;101026;-61
2023/09/18 04:39:23;;;;;;;29.77;14.77;;;;;;;;;;5013404;27;100571;-61
2023/09/18 04:41:50;;;;;;;24.02;14.48;;;;;;;;;;5010423;27;100645;-60
2023/09/18 04:44:17;;;;;;;23.85;14.68;;;;;;;;;;5012854;27;98627;-60
2023/09/18 04:46:43;;;;;;;19.30;14.52;;;;;;;;;;5014603;27;98489;-59
2023/09/18 04:49:11;;;;;;;22.63;15.13;;;;;;;;;;5014924;27;99465;-60
2023/09/18 04:51:38;;;;;;;25.02;13.90;;;;;;;;;;5013781;27;100378;-59
2023/09/18 04:54:05;;;;;;;35.50;15.57;;;;;;;;;;5013675;27;101230;-59
2023/09/18 04:56:31;;;;;;;51.95;18.08;;;;;;;;;;5013284;27;98711;-59
2023/09/18 04:58:58;;;;;;;55.53;20.55;;;;;;;;;;5010958;27;99210;-59
2023/09/18 05:01:24;;;;;;;32.08;16.50;;;;;;;;;;5013047;27;99474;-58
2023/09/18 05:03:51;;;;;;;37.60;17.67;;;;;;;;;;5008901;27;98909;-57
2023/09/18 05:06:18;;;;;;;27.65;13.80;;;;;;;;;;5018842;27;101049;-58
2023/09/18 05:08:45;;;;;;;18.67;10.35;;;;;;;;;;5011976;27;98627;-56
2023/09/18 05:11:12;;;;;;;12.52;7.22;;;;;;;;;;5015454;27;97960;-57
2023/09/18 05:13:40;;;;;;;12.15;6.38;;;;;;;;;;5013230;27;99622;-58
2023/09/18 05:16:06;;;;;;;10.38;7.32;;;;;;;;;;5013968;27;99585;-59
2023/09/18 05:18:33;;;;;;;13.80;7.32;;;;;;;;;;5014047;27;99551;-58
2023/09/18 05:21:01;;;;;;;9.82;7.47;;;;;;;;;;5020331;27;99486;-59
2023/09/18 05:23:28;;;;;;;14.57;8.55;;;;;;;;;;5010168;27;98539;-58
2023/09/18 05:25:55;;;;;;;17.50;8.60;;;;;;;;;;5018979;27;99760;-59
2023/09/18 05:28:21;;;;;;;13.00;8.32;;;;;;;;;;5011654;27;100512;-58
2023/09/18 05:30:48;;;;;;;23.90;8.30;;;;;;;;;;5013801;27;98626;-58
2023/09/18 05:33:14;;;;;;;14.98;9.68;;;;;;;;;;5013560;27;99478;-59
2023/09/18 05:35:42;;;;;;;15.38;9.65;;;;;;;;;;5013598;27;97959;-59
2023/09/18 05:38:13;;;;;;;24.05;10.85;;;;;;;;;;5017175;27;99500;-58
2023/09/18 05:40:40;;;;;;;21.23;11.82;;;;;;;;;;5011013;27;100569;-59
2023/09/18 05:43:07;;;;;;;13.68;9.75;;;;;;;;;;5020430;27;99341;-58
2023/09/18 05:45:34;;;;;;;16.15;10.23;;;;;;;;;;5013573;27;99989;-59
2023/09/18 05:48:03;;;;;;;16.88;10.07;;;;;;;;;;5013660;27;99537;-59
2023/09/18 05:50:32;;;;;;;16.75;11.70;;;;;;;;;;5020563;27;98555;-58
2023/09/18 05:53:00;;;;;;;21.20;11.13;;;;;;;;;;5024358;27;99489;-58
2023/09/18 05:55:33;;;;;;;17.08;10.52;;;;;;;;;;5009488;27;100762;-58
2023/09/18 05:57:59;;;;;;;21.15;11.60;;;;;;;;;;5013065;27;99212;-60
2023/09/18 06:00:30;;;;;;;16.63;10.38;;;;;;;;;;5015625;27;98827;-60
2023/09/18 06:02:58;;;;;;;17.35;10.27;;;;;;;;;;5021097;27;98512;-60
2023/09/18 06:05:24;;;;;;;19.08;10.25;;;;;;;;;;5013094;27;99214;-59
2023/09/18 06:07:51;;;;;;;16.13;10.48;;;;;;;;;;5012249;27;100560;-61
2023/09/18 06:10:18;;;;;;;15.65;10.35;;;;;;;;;;5009570;27;100228;-60
2023/09/18 06:12:45;;;;;;;15.48;10.07;;;;;;;;;;5009059;27;99173;-60
2023/09/18 06:15:11;;;;;;;16.33;9.93;;;;;;;;;;5013344;27;99507;-60
2023/09/18 06:17:39;;;;;;;18.20;10.65;;;;;;;;;;5015002;27;99096;-60
2023/09/18 06:20:10;;;;;;;19.48;10.38;;;;;;;;;;5010823;27;99523;-58
2023/09/18 06:22:38;;;;;;;20.45;10.18;;;;;;;;;;5013374;27;98672;-60
2023/09/18 06:25:05;;;;;;;18.67;11.13;;;;;;;;;;5009986;27;99328;-60
2023/09/18 06:27:34;;;;;;;19.02;11.15;;;;;;;;;;5011322;27;100822;-61
2023/09/18 06:30:00;;;;;;;18.10;10.88;;;;;;;;;;5011815;27;98484;-60
2023/09/18 06:32:27;;;;;;;18.33;11.23;;;;;;;;;;5011435;27;99312;-60
2023/09/18 06:34:53;;;;;;;20.92;11.50;;;;;;;;;;5009222;27;99513;-60
2023/09/18 06:37:20;;;;;;;20.70;10.85;;;;;;;;;;5012349;27;98853;-60
2023/09/18 06:39:47;;;;;;;16.98;10.73;;;;;;;;;;5012028;27;99520;-60
2023/09/18 06:42:13;;;;;;;18.50;10.73;;;;;;;;;;5007959;27;98638;-60
2023/09/18 06:44:39;;;;;;;22.85;11.30;;;;;;;;;;5009711;27;99249;-61
2023/09/18 06:47:06;;;;;;;17.23;10.50;;;;;;;;;;5014512;27;100705;-61
2023/09/18 06:49:32;;;;;;;19.80;10.82;;;;;;;;;;5013625;27;97829;-61
2023/09/18 06:51:59;;;;;;;21.55;10.85;;;;;;;;;;5011892;27;98495;-60
2023/09/18 06:54:25;;;;;;;19.50;10.57;;;;;;;;;;5008014;27;99471;-61
2023/09/18 06:56:52;;;;;;;20.70;10.38;;;;;;;;;;5007564;27;99397;-61
2023/09/18 06:59:18;;;;;;;19.50;10.68;;;;;;;;;;5010399;27;99961;-62
2023/09/18 07:01:45;;;;;;;19.17;10.07;;;;;;;;;;5013454;28;102189;-60
2023/09/18 07:04:12;;;;;;;14.02;9.90;;;;;;;;;;5009496;27;100587;-60
2023/09/18 07:06:39;;;;;;;20.02;10.40;;;;;;;;;;5014278;27;100186;-61
2023/09/18 07:09:06;;;;;;;15.80;10.25;;;;;;;;;;5015789;27;98862;-61
2023/09/18 07:11:33;;;;;;;16.23;9.85;;;;;;;;;;5011903;27;99552;-61
2023/09/18 07:14:06;;;;;;;14.07;9.35;;;;;;;;;;5012274;27;98878;-61
2023/09/18 07:16:33;;;;;;;17.27;9.60;;;;;;;;;;5012974;27;98687;-61
2023/09/18 07:19:01;;;;;;;24.10;10.30;;;;;;;;;;5012854;27;100225;-60
2023/09/18 07:21:29;;;;;;;18.52;10.05;;;;;;;;;;5010772;27;99215;-60
2023/09/18 07:23:55;;;;;;;19.80;8.55;;;;;;;;;;5007197;27;101238;-60
2023/09/18 07:26:22;;;;;;;16.42;9.35;;;;;;;;;;5012501;27;99276;-60
2023/09/18 07:28:48;;;;;;;14.63;9.25;;;;;;;;;;5011724;27;99085;-60
2023/09/18 07:31:15;;;;;;;12.85;8.70;;;;;;;;;;5012222;27;99490;-60
2023/09/18 07:33:41;;;;;;;12.38;7.85;;;;;;;;;;5010229;27;100683;-60
2023/09/18 07:36:09;;;;;;;12.88;8.00;;;;;;;;;;5008517;27;99025;-60
2023/09/18 07:38:37;;;;;;;12.55;7.97;;;;;;;;;;5009563;27;100509;-61
2023/09/18 07:41:04;;;;;;;10.15;7.03;;;;;;;;;;5011447;27;100582;-60
2023/09/18 07:43:30;;;;;;;11.15;7.18;;;;;;;;;;5007977;27;99434;-60
2023/09/18 07:45:58;;;;;;;12.02;7.45;;;;;;;;;;5015798;27;102043;-60
2023/09/18 07:48:24;;;;;;;13.15;6.95;;;;;;;;;;5009425;27;98668;-61
2023/09/18 07:50:51;;;;;;;14.10;6.63;;;;;;;;;;5008150;27;99845;-60
2023/09/18 07:53:18;;;;;;;11.35;6.50;;;;;;;;;;5012922;27;99938;-60
2023/09/18 07:55:44;;;;;;;11.38;6.15;;;;;;;;;;5015125;27;98624;-61
2023/09/18 07:58:11;;;;;;;12.13;5.28;;;;;;;;;;5017099;27;99643;-62
2023/09/18 08:00:39;;;;;;;7.53;5.20;;;;;;;;;;5020465;27;99266;-62
2023/09/18 08:03:05;;;;;;;7.70;5.05;;;;;;;;;;5020363;27;99859;-60
2023/09/18 08:05:32;;;;;;;13.43;5.60;;;;;;;;;;5013918;27;99491;-60
2023/09/18 08:07:59;;;;;;;13.73;5.35;;;;;;;;;;5011812;27;98467;-62
2023/09/18 08:10:26;;;;;;;7.22;4.38;;;;;;;;;;5013577;27;99426;-61
2023/09/18 08:12:53;;;;;;;6.45;4.90;;;;;;;;;;5015970;27;100521;-61
2023/09/18 08:15:20;;;;;;;8.05;4.88;;;;;;;;;;5011424;27;98504;-61
2023/09/18 08:17:48;;;;;;;7.20;4.38;;;;;;;;;;5012144;27;98898;-61
2023/09/18 08:20:15;;;;;;;7.25;4.47;;;;;;;;;;5012137;27;99465;-61
2023/09/18 08:22:43;;;;;;;9.73;4.00;;;;;;;;;;5015221;27;98695;-61
2023/09/18 08:25:10;;;;;;;5.40;3.70;;;;;;;;;;5013602;27;100183;-61
2023/09/18 08:27:41;;;;;;;7.68;4.30;;;;;;;;;;5011379;27;97880;-61
2023/09/18 08:30:09;;;;;;;5.35;3.75;;;;;;;;;;5014297;27;98721;-61
2023/09/18 08:32:37;;;;;;;6.10;3.92;;;;;;;;;;5010658;27;99713;-61
2023/09/18 08:35:04;;;;;;;12.50;4.57;;;;;;;;;;5010025;27;99381;-61
2023/09/18 08:37:30;;;;;;;7.25;4.50;;;;;;;;;;5017707;27;103474;-62
2023/09/18 08:39:57;;;;;;;7.32;4.30;;;;;;;;;;5011088;27;99609;-62
2023/09/18 08:42:24;;;;;;;10.57;3.95;;;;;;;;;;5010495;27;98786;-62
2023/09/18 08:44:51;;;;;;;11.00;4.15;;;;;;;;;;5014812;27;101443;-61
2023/09/18 08:47:18;;;;;;;7.43;3.40;;;;;;;;;;5017871;27;99492;-62
2023/09/18 08:49:46;;;;;;;6.45;3.70;;;;;;;;;;5010164;27;99679;-62
2023/09/18 08:52:14;;;;;;;6.22;3.92;;;;;;;;;;5013473;27;98744;-62
2023/09/18 08:54:42;;;;;;;8.73;3.90;;;;;;;;;;5010289;27;98598;-62
2023/09/18 08:57:09;;;;;;;7.35;3.72;;;;;;;;;;5015053;27;99170;-62
2023/09/18 08:59:36;;;;;;;5.80;3.70;;;;;;;;;;5009264;27;100428;-62
2023/09/18 09:02:02;;;;;;;10.00;3.85;;;;;;;;;;5012631;27;98582;-63
2023/09/18 09:04:29;;;;;;;7.82;3.50;;;;;;;;;;5017832;27;99308;-63
2023/09/18 09:06:59;;;;;;;4.22;3.60;;;;;;;;;;5016471;27;99029;-63
2023/09/18 09:09:30;;;;;;;4.40;3.45;;;;;;;;;;5014871;27;98664;-62
2023/09/18 09:11:57;;;;;;;7.40;3.15;;;;;;;;;;5010149;27;99624;-63
2023/09/18 09:14:29;;;;;;;4.57;2.97;;;;;;;;;;5014771;27;98586;-62
2023/09/18 09:16:57;;;;;;;4.85;3.05;;;;;;;;;;5013007;27;99482;-62
2023/09/18 09:19:30;;;;;;;5.40;3.20;;;;;;;;;;5009897;27;99548;-62
2023/09/18 09:21:58;;;;;;;4.53;2.83;;;;;;;;;;5010769;27;98521;-61
2023/09/18 09:24:40;;;;;;;2.67;2.40;;;;;;;;;;5009911;27;99366;-67
2023/09/18 09:27:08;;;;;;;5.53;2.60;;;;;;;;;;5013019;27;99374;-69
2023/09/18 09:29:35;;;;;;;7.57;2.83;;;;;;;;;;5015855;27;98523;-69
2023/09/18 09:32:14;;;;;;;6.07;2.53;;;;;;;;;;5011185;27;100544;-69
2023/09/18 09:34:41;;;;;;;3.80;2.97;;;;;;;;;;5010778;27;98562;-68
2023/09/18 09:37:08;;;;;;;5.05;2.40;;;;;;;;;;5015172;27;99135;-65
2023/09/18 09:39:35;;;;;;;7.15;2.15;;;;;;;;;;5011462;27;99479;-65
2023/09/18 09:42:03;;;;;;;9.80;2.22;;;;;;;;;;5011153;27;97941;-65
2023/09/18 09:44:33;;;;;;;8.95;2.45;;;;;;;;;;5012893;27;99574;-64
2023/09/18 09:47:00;;;;;;;6.88;2.22;;;;;;;;;;5020507;27;99532;-65
2023/09/18 09:49:33;;;;;;;4.95;2.28;;;;;;;;;;5010707;27;99339;-66
2023/09/18 09:51:59;;;;;;;3.53;2.28;;;;;;;;;;5013567;27;99867;-65
2023/09/18 09:54:38;;;;;;;2.90;2.00;;;;;;;;;;5017876;27;98543;-66
2023/09/18 09:57:05;;;;;;;8.32;1.98;;;;;;;;;;5015513;27;100252;-66
2023/09/18 09:59:35;;;;;;;3.90;1.88;;;;;;;;;;5009727;27;99442;-67
2023/09/18 10:02:01;;;;;;;4.95;2.05;;;;;;;;;;5020989;27;98690;-66
2023/09/18 10:04:31;;;;;;;4.22;2.00;;;;;;;;;;5016850;27;99479;-66
2023/09/18 10:07:02;;;;;;;4.85;1.80;;;;;;;;;;5011862;27;98751;-66
2023/09/18 10:09:29;;;;;;;4.07;2.08;;;;;;;;;;5008738;27;98485;-66
2023/09/18 10:11:56;;;;;;;7.38;2.33;;;;;;;;;;5010484;27;99192;-66
2023/09/18 10:14:29;;;;;;;5.47;2.40;;;;;;;;;;5015472;27;101196;-66
2023/09/18 10:16:59;;;;;;;5.22;2.13;;;;;;;;;;5011643;27;100885;-66
2023/09/18 10:19:39;;;;;;;6.13;2.65;;;;;;;;;;5012789;27;99469;-66
2023/09/18 10:22:11;;;;;;;5.53;2.47;;;;;;;;;;5016377;27;98619;-65
2023/09/18 10:24:38;;;;;;;3.78;2.80;;;;;;;;;;5022337;27;100078;-66
2023/09/18 10:27:06;;;;;;;4.03;3.13;;;;;;;;;;5011636;27;100201;-66
2023/09/18 10:29:34;;;;;;;11.55;3.03;;;;;;;;;;5015656;27;101493;-63
2023/09/18 10:32:02;;;;;;;4.25;3.17;;;;;;;;;;5010012;27;99665;-64
2023/09/18 10:34:30;;;;;;;4.38;3.13;;;;;;;;;;5010668;27;100551;-64
2023/09/18 10:36:57;;;;;;;6.05;3.50;;;;;;;;;;5012286;27;98511;-64
2023/09/18 10:39:26;;;;;;;13.25;3.85;;;;;;;;;;5009341;27;100224;-65
2023/09/18 10:41:53;;;;;;;7.65;3.40;;;;;;;;;;5011320;27;99529;-63
2023/09/18 10:44:20;;;;;;;18.15;4.68;;;;;;;;;;5010193;27;99146;-64
2023/09/18 10:46:47;;;;;;;9.23;3.40;;;;;;;;;;5012067;27;99529;-65
2023/09/18 10:49:14;;;;;;;7.65;3.55;;;;;;;;;;5015349;27;98763;-63
2023/09/18 10:51:42;;;;;;;6.50;3.17;;;;;;;;;;5009464;27;99122;-64
2023/09/18 10:54:09;;;;;;;6.93;3.38;;;;;;;;;;5010732;27;98549;-64
2023/09/18 10:56:40;;;;;;;10.48;3.85;;;;;;;;;;5013509;27;98008;-65
2023/09/18 10:59:07;;;;;;;9.20;3.50;;;;;;;;;;5014212;27;98896;-64
2023/09/18 11:01:37;;;;;;;11.52;4.10;;;;;;;;;;5016269;27;100304;-65
2023/09/18 11:04:07;;;;;;;7.30;4.00;;;;;;;;;;5007665;27;99830;-66
2023/09/18 11:06:52;;;;;;;5.80;3.78;;;;;;;;;;5010184;27;99478;-65
2023/09/18 11:09:26;;;;;;;10.05;4.03;;;;;;;;;;5008227;27;98641;-64
2023/09/18 11:11:56;;;;;;;4.65;3.53;;;;;;;;;;5013813;27;99137;-64
2023/09/18 11:14:23;;;;;;;13.60;4.10;;;;;;;;;;5007703;27;99388;-64
2023/09/18 11:16:50;;;;;;;6.78;3.55;;;;;;;;;;5010406;27;98600;-65
2023/09/18 11:19:17;;;;;;;6.95;3.53;;;;;;;;;;5012527;27;100527;-65
2023/09/18 11:21:45;;;;;;;5.85;3.40;;;;;;;;;;5015722;27;98878;-64
2023/09/18 11:24:17;;;;;;;5.35;3.42;;;;;;;;;;5009033;27;98508;-65
2023/09/18 11:26:45;;;;;;;5.90;3.30;;;;;;;;;;5013385;27;100779;-65
2023/09/18 11:29:13;;;;;;;3.70;2.80;;;;;;;;;;5014732;27;99538;-65
2023/09/18 11:31:46;;;;;;;8.63;2.53;;;;;;;;;;5018111;27;100739;-65
2023/09/18 11:34:13;;;;;;;6.15;2.55;;;;;;;;;;5011995;27;99761;-66
2023/09/18 11:36:40;;;;;;;5.45;3.28;;;;;;;;;;5018380;27;99136;-65
2023/09/18 11:39:06;;;;;;;9.68;3.30;;;;;;;;;;5022693;27;100493;-65
2023/09/18 11:41:35;;;;;;;8.00;4.10;;;;;;;;;;5014756;27;99445;-65
2023/09/18 11:44:10;;;;;;;6.93;4.13;;;;;;;;;;5023765;27;101886;-65
2023/09/18 11:46:39;;;;;;;7.63;4.10;;;;;;;;;;5023381;27;99117;-65
2023/09/18 11:49:10;;;;;;;7.23;4.00;;;;;;;;;;5011530;27;100274;-65
2023/09/18 11:51:37;;;;;;;7.60;3.63;;;;;;;;;;5009440;27;99058;-65
2023/09/18 11:54:05;;;;;;;6.72;3.25;;;;;;;;;;5010571;27;100347;-64
2023/09/18 11:56:34;;;;;;;11.00;3.28;;;;;;;;;;5013089;27;98978;-70
2023/09/18 11:59:04;;;;;;;8.43;3.20;;;;;;;;;;5010884;27;100174;-70
2023/09/18 12:01:35;;;;;;;9.38;3.92;;;;;;;;;;5010524;27;99311;-70
2023/09/18 12:04:07;;;;;;;8.52;3.17;;;;;;;;;;5020530;27;98823;-71
2023/09/18 12:06:34;;;;;;;10.68;3.25;;;;;;;;;;5015413;27;99074;-67
2023/09/18 12:09:01;;;;;;;17.23;3.85;;;;;;;;;;5015719;27;98584;-67
2023/09/18 12:11:28;;;;;;;8.98;2.58;;;;;;;;;;5012036;27;101088;-67
2023/09/18 12:13:54;;;;;;;6.05;2.72;;;;;;;;;;5017053;27;99554;-67
2023/09/18 12:16:21;;;;;;;11.35;2.63;;;;;;;;;;5012932;27;98668;-67
2023/09/18 12:18:48;;;;;;;9.38;2.78;;;;;;;;;;5012147;27;100681;-66
2023/09/18 12:21:16;;;;;;;4.97;2.70;;;;;;;;;;5018634;27;99652;-67
2023/09/18 12:23:44;;;;;;;7.30;2.97;;;;;;;;;;5017171;27;98598;-67
2023/09/18 12:26:13;;;;;;;5.80;2.70;;;;;;;;;;5018555;27;100058;-69
2023/09/18 12:28:40;;;;;;;7.43;3.40;;;;;;;;;;5010747;27;98696;-72
2023/09/18 12:31:10;;;;;;;5.60;3.08;;;;;;;;;;5015393;27;99236;-73
2023/09/18 12:33:37;;;;;;;7.47;3.25;;;;;;;;;;5010922;27;103936;-73
2023/09/18 12:36:05;;;;;;;6.25;2.63;;;;;;;;;;5014506;27;100192;-73
2023/09/18 12:38:31;;;;;;;3.83;2.00;;;;;;;;;;5012441;27;99407;-73
2023/09/18 12:41:05;;;;;;;6.78;2.90;;;;;;;;;;5010477;27;99625;-70
2023/09/18 12:43:36;;;;;;;4.10;2.40;;;;;;;;;;5017057;27;99539;-73
2023/09/18 12:46:04;;;;;;;6.25;2.50;;;;;;;;;;5011759;27;101227;-73
2023/09/18 12:48:30;;;;;;;5.57;2.45;;;;;;;;;;5026981;27;99654;-74
2023/09/18 12:51:04;;;;;;;4.57;2.28;;;;;;;;;;5012563;27;99332;-73
2023/09/18 12:53:30;;;;;;;7.22;2.50;;;;;;;;;;5018178;27;99504;-72
2023/09/18 12:56:05;;;;;;;3.33;2.17;;;;;;;;;;5015047;27;98970;-70
2023/09/18 12:58:31;;;;;;;11.20;2.72;;;;;;;;;;5014790;27;99290;-70
2023/09/18 13:01:04;;;;;;;10.25;4.13;;;;;;;;;;5016250;27;98736;-70
2023/09/18 13:03:31;;;;;;;61.67;45.53;;;;;;;;;;5015637;27;98546;-70
2023/09/18 13:06:27;;;;;;;92.18;71.45;;;;;;;;;;5009447;27;99191;-66
2023/09/18 13:08:54;;;;;;;100.13;89.20;;;;;;;;;;4997086;27;101350;-66
2023/09/18 13:11:20;;;;;;;250.95;211.30;;;;;;;;;;5023527;27;98857;-66
2023/09/18 13:13:56;;;;;;;331.13;294.98;;;;;;;;;;5013797;27;100239;-66
2023/09/18 13:16:23;;;;;;;167.68;144.77;;;;;;;;;;5017795;27;98531;-66
2023/09/18 13:18:49;;;;;;;267.42;234.48;;;;;;;;;;5020202;27;99272;-66
2023/09/18 13:21:16;;;;;;;369.75;314.13;;;;;;;;;;5011101;27;99519;-66
2023/09/18 13:23:43;;;;;;;194.88;161.73;;;;;;;;;;5009929;27;98627;-66
2023/09/18 13:26:09;;;;;;;169.85;142.85;;;;;;;;;;5017569;27;99415;-66
2023/09/18 13:28:36;;;;;;;186.10;152.10;;;;;;;;;;5011783;27;100920;-67
2023/09/18 13:31:05;;;;;;;151.68;134.65;;;;;;;;;;5014869;27;98566;-66
2023/09/18 13:33:34;;;;;;;136.43;119.32;;;;;;;;;;5015872;27;100311;-66
2023/09/18 13:36:01;;;;;;;193.93;173.30;;;;;;;;;;5013570;27;99138;-66
2023/09/18 13:38:27;;;;;;;167.52;150.55;;;;;;;;;;5022010;27;100277;-67
2023/09/18 13:40:57;;;;;;;154.77;139.57;;;;;;;;;;5007922;27;99668;-67
2023/09/18 13:43:23;;;;;;;161.95;144.43;;;;;;;;;;5012772;27;98768;-67
2023/09/18 13:45:53;;;;;;;139.27;125.82;;;;;;;;;;5011629;27;99127;-66
2023/09/18 13:48:20;;;;;;;111.00;100.88;;;;;;;;;;5018609;27;100483;-66
2023/09/18 13:50:47;;;;;;;129.82;117.72;;;;;;;;;;5011397;27;99239;-67
2023/09/18 13:53:14;;;;;;;166.07;149.40;;;;;;;;;;5026493;27;98901;-67
2023/09/18 13:55:41;;;;;;;130.75;118.13;;;;;;;;;;5012351;27;98501;-67
2023/09/18 13:58:07;;;;;;;221.15;200.93;;;;;;;;;;5007060;27;99377;-67
2023/09/18 14:00:33;;;;;;;225.75;203.80;;;;;;;;;;5009208;27;99579;-66
2023/09/18 14:03:00;;;;;;;243.25;219.20;;;;;;;;;;5008188;27;99371;-66
2023/09/18 14:05:28;;;;;;;236.63;214.23;;;;;;;;;;5011851;27;99359;-67
2023/09/18 14:07:59;;;;;;;241.73;216.38;;;;;;;;;;5008641;27;101775;-66
2023/09/18 14:10:26;;;;;;;295.55;265.73;;;;;;;;;;5008557;27;98698;-67
2023/09/18 14:12:53;;;;;;;394.30;356.50;;;;;;;;;;5010395;27;99360;-65
2023/09/18 14:15:20;;;;;;;368.95;329.80;;;;;;;;;;5013546;27;99739;-65
2023/09/18 14:17:48;;;;;;;350.38;316.15;;;;;;;;;;5012734;27;99029;-68
2023/09/18 14:20:18;;;;;;;336.98;300.90;;;;;;;;;;5011556;27;99805;-67
2023/09/18 14:22:44;;;;;;;252.77;228.30;;;;;;;;;;5006737;27;99352;-67
2023/09/18 14:25:11;;;;;;;233.02;211.00;;;;;;;;;;5012631;27;102553;-67